createdAt,value
2018-04-29T00:00:03.767Z,15.4
2018-04-29T00:00:53.525Z,15.3
2018-04-29T00:01:43.601Z,15.3
2018-04-29T00:02:33.950Z,15.2
2018-04-29T00:03:24.033Z,15.1
2018-04-29T00:04:14.094Z,15.1
2018-04-29T00:05:04.121Z,15.1
2018-04-29T00:05:54.191Z,15.1
2018-04-29T00:06:43.710Z,15.1
2018-04-29T00:07:34.345Z,15.1
2018-04-29T00:08:24.107Z,15.2
2018-04-29T00:09:13.918Z,15.2
2018-04-29T00:10:04.547Z,15.3
2018-04-29T00:10:54.107Z,15.3
2018-04-29T00:11:44.646Z,15.3
2018-04-29T00:12:34.441Z,15.1
2018-04-29T00:13:24.500Z,15.1
2018-04-29T00:14:14.849Z,15
2018-04-29T00:15:04.923Z,14.9
2018-04-29T00:15:54.686Z,14.9
2018-04-29T00:16:45.052Z,14.9
2018-04-29T00:17:34.836Z,14.9
2018-04-29T00:18:24.882Z,14.8
2018-04-29T00:19:14.956Z,14.8
2018-04-29T00:20:05.312Z,14.8
2018-04-29T00:20:55.441Z,14.8
2018-04-29T00:21:45.418Z,14.8
2018-04-29T00:22:35.218Z,14.8
2018-04-29T00:23:24.435Z,14.9
2018-04-29T00:24:15.421Z,14.9
2018-04-29T00:25:05.426Z,14.8
2018-04-29T00:25:55.488Z,14.9
2018-04-29T00:26:45.801Z,14.8
2018-04-29T00:27:35.338Z,14.8
2018-04-29T00:28:25.669Z,14.8
2018-04-29T00:29:15.732Z,14.8
2018-04-29T00:30:05.783Z,14.7
2018-04-29T00:30:56.146Z,14.7
2018-04-29T00:31:46.220Z,14.6
2018-04-29T00:32:36.275Z,14.6
2018-04-29T00:33:26.048Z,14.6
2018-04-29T00:34:16.396Z,14.6
2018-04-29T00:35:06.460Z,14.6
2018-04-29T00:35:56.532Z,14.6
2018-04-29T00:36:46.325Z,14.7
2018-04-29T00:37:36.675Z,14.7
2018-04-29T00:38:26.441Z,14.7
2018-04-29T00:39:16.772Z,14.7
2018-04-29T00:40:06.282Z,14.7
2018-04-29T00:40:56.639Z,14.6
2018-04-29T00:41:46.693Z,14.6
2018-04-29T00:42:36.484Z,14.6
2018-04-29T00:43:26.824Z,14.6
2018-04-29T00:44:17.176Z,14.6
2018-04-29T00:45:07.236Z,14.6
2018-04-29T00:45:56.751Z,14.6
2018-04-29T00:46:47.361Z,14.6
2018-04-29T00:47:37.440Z,14.6
2018-04-29T00:48:27.485Z,14.5
2018-04-29T00:49:17.544Z,14.4
2018-04-29T00:50:07.099Z,14.4
2018-04-29T00:50:57.723Z,14.4
2018-04-29T00:51:47.733Z,14.3
2018-04-29T00:52:37.251Z,14.3
2018-04-29T00:53:27.855Z,14.3
2018-04-29T00:54:17.976Z,14.3
2018-04-29T00:55:08.011Z,14.3
2018-04-29T00:55:57.789Z,14.3
2018-04-29T00:56:48.142Z,14.3
2018-04-29T00:57:38.214Z,14.3
2018-04-29T00:58:28.275Z,14.2
2018-04-29T00:59:18.039Z,14.3
2018-04-29T01:00:08.385Z,14.3
2018-04-29T01:00:58.168Z,14.2
2018-04-29T01:01:48.241Z,14.2
2018-04-29T01:02:38.599Z,14.3
2018-04-29T01:03:28.657Z,14.3
2018-04-29T01:04:18.479Z,14.3
2018-04-29T01:05:08.511Z,14.3
2018-04-29T01:05:59.061Z,14.3
2018-04-29T01:06:48.995Z,14.3
2018-04-29T01:07:38.993Z,14.3
2018-04-29T01:08:29.040Z,14.2
2018-04-29T01:09:19.092Z,14.2
2018-04-29T01:10:09.168Z,14.2
2018-04-29T01:10:59.225Z,14.2
2018-04-29T01:11:48.738Z,14.1
2018-04-29T01:12:39.070Z,14.2
2018-04-29T01:13:29.164Z,14.1
2018-04-29T01:14:19.496Z,14.1
2018-04-29T01:15:09.278Z,14.1
2018-04-29T01:15:59.333Z,14.1
2018-04-29T01:16:49.393Z,14.1
2018-04-29T01:17:39.735Z,14.1
2018-04-29T01:18:29.572Z,14.1
2018-04-29T01:19:19.625Z,14.1
2018-04-29T01:20:09.659Z,14.1
2018-04-29T01:20:59.737Z,14
2018-04-29T01:21:50.061Z,14.1
2018-04-29T01:22:40.136Z,14.1
2018-04-29T01:23:29.942Z,14
2018-04-29T01:24:19.704Z,14
2018-04-29T01:25:10.077Z,14
2018-04-29T01:26:00.121Z,14.1
2018-04-29T01:26:50.464Z,14.1
2018-04-29T01:27:40.531Z,14
2018-04-29T01:28:30.597Z,14
2018-04-29T01:29:20.388Z,14
2018-04-29T01:30:10.713Z,13.9
2018-04-29T01:31:00.502Z,14
2018-04-29T01:31:50.569Z,14
2018-04-29T01:32:40.931Z,14
2018-04-29T01:33:30.985Z,13.9
2018-04-29T01:34:21.031Z,13.9
2018-04-29T01:35:11.098Z,13.9
2018-04-29T01:36:00.896Z,13.9
2018-04-29T01:36:51.223Z,13.9
2018-04-29T01:37:41.290Z,13.9
2018-04-29T01:38:31.070Z,13.9
2018-04-29T01:39:21.435Z,13.8
2018-04-29T01:40:11.532Z,13.8
2018-04-29T01:41:01.328Z,13.8
2018-04-29T01:41:51.361Z,13.8
2018-04-29T01:42:40.848Z,13.8
2018-04-29T01:43:31.465Z,13.8
2018-04-29T01:44:21.265Z,13.8
2018-04-29T01:45:11.607Z,13.8
2018-04-29T01:46:01.930Z,13.8
2018-04-29T01:46:51.728Z,13.9
2018-04-29T01:47:42.063Z,13.9
2018-04-29T01:48:32.147Z,13.9
2018-04-29T01:49:22.201Z,13.9
2018-04-29T01:50:12.263Z,13.9
2018-04-29T01:51:02.348Z,13.9
2018-04-29T01:51:52.125Z,13.9
2018-04-29T01:52:42.449Z,13.9
2018-04-29T01:53:31.973Z,13.8
2018-04-29T01:54:22.572Z,13.8
2018-04-29T01:55:12.392Z,13.8
2018-04-29T01:56:02.468Z,13.8
2018-04-29T01:56:52.787Z,13.8
2018-04-29T01:57:42.588Z,13.8
2018-04-29T01:58:32.065Z,13.8
2018-04-29T01:59:22.693Z,13.8
2018-04-29T02:00:13.065Z,13.8
2018-04-29T02:01:03.100Z,13.8
2018-04-29T02:01:53.188Z,13.8
2018-04-29T02:02:42.977Z,13.8
2018-04-29T02:03:33.318Z,13.7
2018-04-29T02:04:23.092Z,13.7
2018-04-29T02:05:13.442Z,13.7
2018-04-29T02:06:03.502Z,13.7
2018-04-29T02:06:53.553Z,13.6
2018-04-29T02:07:43.614Z,13.6
2018-04-29T02:08:33.697Z,13.6
2018-04-29T02:09:23.749Z,13.7
2018-04-29T02:10:13.806Z,13.6
2018-04-29T02:11:03.628Z,13.6
2018-04-29T02:11:53.689Z,13.6
2018-04-29T02:12:43.734Z,13.6
2018-04-29T02:13:33.533Z,13.6
2018-04-29T02:14:23.858Z,13.6
2018-04-29T02:15:13.966Z,13.7
2018-04-29T02:16:04.279Z,13.8
2018-04-29T02:16:54.339Z,13.7
2018-04-29T02:17:44.134Z,13.6
2018-04-29T02:18:34.211Z,13.6
2018-04-29T02:19:24.538Z,13.6
2018-04-29T02:20:14.334Z,13.6
2018-04-29T02:21:04.383Z,13.6
2018-04-29T02:21:54.718Z,13.5
2018-04-29T02:22:43.963Z,13.4
2018-04-29T02:23:34.846Z,13.2
2018-04-29T02:24:24.907Z,12.9
2018-04-29T02:25:14.991Z,12.8
2018-04-29T02:26:04.767Z,12.8
2018-04-29T02:26:54.843Z,12.8
2018-04-29T02:27:44.634Z,12.8
2018-04-29T02:28:34.971Z,12.8
2018-04-29T02:29:25.058Z,12.8
2018-04-29T02:30:15.140Z,12.8
2018-04-29T02:31:05.463Z,12.8
2018-04-29T02:31:55.238Z,12.7
2018-04-29T02:32:45.589Z,12.9
2018-04-29T02:33:35.386Z,13
2018-04-29T02:34:24.863Z,13.1
2018-04-29T02:35:15.758Z,13.2
2018-04-29T02:36:05.838Z,13.2
2018-04-29T02:36:55.897Z,13.2
2018-04-29T02:37:45.964Z,13.3
2018-04-29T02:38:35.837Z,13.3
2018-04-29T02:39:26.171Z,13.3
2018-04-29T02:40:16.162Z,13.3
2018-04-29T02:41:06.257Z,13.2
2018-04-29T02:41:56.292Z,13.3
2018-04-29T02:42:46.069Z,13.3
2018-04-29T02:43:36.427Z,13.1
2018-04-29T02:44:26.511Z,13.1
2018-04-29T02:45:16.269Z,12.9
2018-04-29T02:46:06.147Z,12.9
2018-04-29T02:46:56.393Z,12.9
2018-04-29T02:47:46.742Z,12.8
2018-04-29T02:48:36.793Z,12.8
2018-04-29T02:49:26.608Z,12.8
2018-04-29T02:50:16.948Z,12.9
2018-04-29T02:51:06.992Z,12.9
2018-04-29T02:51:57.068Z,12.9
2018-04-29T02:52:46.891Z,12.8
2018-04-29T02:53:36.948Z,12.9
2018-04-29T02:54:27.279Z,12.9
2018-04-29T02:55:17.038Z,12.7
2018-04-29T02:56:07.113Z,12.6
2018-04-29T02:56:57.495Z,12.4
2018-04-29T02:57:47.618Z,12.4
2018-04-29T02:58:37.588Z,12.4
2018-04-29T02:59:27.660Z,12.3
2018-04-29T03:00:17.434Z,12.3
2018-04-29T03:01:07.513Z,12.2
2018-04-29T03:01:57.879Z,12.1
2018-04-29T03:02:47.951Z,12.1
2018-04-29T03:03:38.003Z,12.1
2018-04-29T03:04:27.779Z,12.1
2018-04-29T03:05:17.831Z,12
2018-04-29T03:06:07.620Z,11.9
2018-04-29T03:06:58.249Z,11.9
2018-04-29T03:07:48.289Z,11.9
2018-04-29T03:08:38.080Z,11.9
2018-04-29T03:09:28.433Z,11.9
2018-04-29T03:10:18.217Z,11.8
2018-04-29T03:11:08.584Z,11.8
2018-04-29T03:11:58.358Z,11.8
2018-04-29T03:12:48.709Z,11.8
2018-04-29T03:13:38.738Z,11.8
2018-04-29T03:14:28.842Z,11.8
2018-04-29T03:15:18.962Z,11.7
2018-04-29T03:16:08.934Z,11.7
2018-04-29T03:16:58.727Z,11.7
2018-04-29T03:17:49.091Z,11.7
2018-04-29T03:18:39.160Z,11.6
2018-04-29T03:19:28.927Z,11.6
2018-04-29T03:20:19.294Z,11.6
2018-04-29T03:21:08.749Z,11.6
2018-04-29T03:21:59.395Z,11.6
2018-04-29T03:22:49.466Z,11.6
2018-04-29T03:23:39.520Z,11.6
2018-04-29T03:24:29.585Z,11.5
2018-04-29T03:25:19.476Z,11.4
2018-04-29T03:26:09.734Z,11.4
2018-04-29T03:26:59.484Z,11.4
2018-04-29T03:27:49.828Z,11.4
2018-04-29T03:28:39.907Z,11.4
2018-04-29T03:29:29.696Z,11.4
2018-04-29T03:30:20.095Z,11.4
2018-04-29T03:31:10.114Z,11.4
2018-04-29T03:31:59.611Z,11.4
2018-04-29T03:32:49.940Z,11.4
2018-04-29T03:33:40.294Z,11.4
2018-04-29T03:34:30.369Z,11.4
2018-04-29T03:35:20.424Z,11.4
2018-04-29T03:36:10.500Z,11.5
2018-04-29T03:37:00.626Z,11.5
2018-04-29T03:37:50.643Z,11.5
2018-04-29T03:38:40.396Z,11.4
2018-04-29T03:39:30.731Z,11.4
2018-04-29T03:40:20.806Z,11.4
2018-04-29T03:41:10.591Z,11.4
2018-04-29T03:42:00.954Z,11.3
2018-04-29T03:42:51.026Z,11.4
2018-04-29T03:43:41.102Z,11.4
2018-04-29T03:44:31.137Z,11.4
2018-04-29T03:45:20.638Z,11.4
2018-04-29T03:46:11.296Z,11.4
2018-04-29T03:47:01.055Z,11.3
2018-04-29T03:47:51.470Z,11.4
2018-04-29T03:48:41.463Z,11.3
2018-04-29T03:49:31.542Z,11.3
2018-04-29T03:50:21.318Z,11.3
2018-04-29T03:51:11.658Z,11.3
2018-04-29T03:52:01.724Z,11.3
2018-04-29T03:52:51.821Z,11.4
2018-04-29T03:53:41.861Z,11.4
2018-04-29T03:54:31.906Z,11.4
2018-04-29T03:55:21.969Z,11.4
2018-04-29T03:56:12.031Z,11.4
2018-04-29T03:57:01.914Z,11.4
2018-04-29T03:57:51.884Z,11.5
2018-04-29T03:58:42.309Z,11.6
2018-04-29T03:59:32.307Z,11.6
2018-04-29T04:00:22.363Z,11.6
2018-04-29T04:01:12.420Z,11.5
2018-04-29T04:02:02.511Z,11.6
2018-04-29T04:02:52.658Z,11.6
2018-04-29T04:03:42.358Z,11.6
2018-04-29T04:04:32.721Z,11.6
2018-04-29T04:05:22.474Z,11.6
2018-04-29T04:06:12.798Z,11.8
2018-04-29T04:07:02.876Z,11.8
2018-04-29T04:07:52.374Z,11.7
2018-04-29T04:08:42.719Z,11.7
2018-04-29T04:09:32.864Z,11.8
2018-04-29T04:10:23.139Z,11.8
2018-04-29T04:11:13.198Z,11.8
2018-04-29T04:12:03.260Z,11.8
2018-04-29T04:12:53.326Z,11.8
2018-04-29T04:13:43.409Z,11.8
2018-04-29T04:14:33.441Z,11.8
2018-04-29T04:15:23.522Z,11.9
2018-04-29T04:16:13.609Z,11.9
2018-04-29T04:17:03.361Z,11.9
2018-04-29T04:17:53.445Z,11.9
2018-04-29T04:18:43.526Z,11.9
2018-04-29T04:19:33.314Z,11.9
2018-04-29T04:20:23.931Z,11.9
2018-04-29T04:21:13.709Z,11.9
2018-04-29T04:22:04.074Z,12
2018-04-29T04:22:54.121Z,12
2018-04-29T04:23:44.422Z,12.1
2018-04-29T04:24:34.294Z,12.1
2018-04-29T04:25:24.298Z,12.3
2018-04-29T04:26:14.358Z,12.3
2018-04-29T04:27:03.878Z,12.4
2018-04-29T04:27:54.499Z,12.4
2018-04-29T04:28:44.581Z,12.3
2018-04-29T04:29:34.643Z,12.3
2018-04-29T04:30:24.148Z,12.4
2018-04-29T04:31:14.822Z,12.4
2018-04-29T04:32:04.829Z,12.4
2018-04-29T04:32:54.889Z,12.4
2018-04-29T04:33:44.411Z,12.5
2018-04-29T04:34:35.028Z,12.5
2018-04-29T04:35:24.797Z,12.5
2018-04-29T04:36:15.139Z,12.5
2018-04-29T04:37:04.353Z,12.6
2018-04-29T04:37:55.288Z,12.8
2018-04-29T04:38:45.054Z,12.9
2018-04-29T04:39:35.418Z,12.8
2018-04-29T04:40:24.901Z,13.1
2018-04-29T04:41:15.257Z,13.2
2018-04-29T04:42:05.589Z,13.2
2018-04-29T04:42:55.397Z,13.3
2018-04-29T04:43:45.712Z,13.4
2018-04-29T04:44:35.221Z,13.1
2018-04-29T04:45:25.869Z,13.3
2018-04-29T04:46:15.936Z,13.4
2018-04-29T04:47:05.988Z,13.4
2018-04-29T04:47:55.779Z,13.4
2018-04-29T04:49:22.179Z,13.2
2018-04-29T04:49:36.193Z,13.2
2018-04-29T04:50:26.000Z,13.3
2018-04-29T04:51:16.029Z,13.4
2018-04-29T04:52:06.371Z,13.5
2018-04-29T04:52:55.880Z,13.6
2018-04-29T04:53:46.498Z,13.7
2018-04-29T04:54:36.572Z,13.8
2018-04-29T04:55:26.642Z,13.9
2018-04-29T04:56:16.706Z,14.1
2018-04-29T04:57:06.290Z,14.1
2018-04-29T04:57:56.906Z,14.2
2018-04-29T04:58:46.922Z,14.2
2018-04-29T04:59:36.974Z,14.4
2018-04-29T05:00:26.483Z,14.4
2018-04-29T05:01:16.562Z,14.6
2018-04-29T05:02:06.591Z,14.6
2018-04-29T05:02:56.956Z,14.7
2018-04-29T05:03:47.286Z,14.9
2018-04-29T05:04:37.409Z,14.9
2018-04-29T05:05:27.414Z,15
2018-04-29T05:06:17.208Z,15
2018-04-29T05:07:07.559Z,15.1
2018-04-29T05:07:57.334Z,15.3
2018-04-29T05:08:47.398Z,15.3
2018-04-29T05:09:37.481Z,15.4
2018-04-29T05:10:27.819Z,15.4
2018-04-29T05:11:17.374Z,15.4
2018-04-29T05:12:07.366Z,15.5
2018-04-29T05:12:57.714Z,15.6
2018-04-29T05:13:48.794Z,15.6
2018-04-29T05:14:37.868Z,15.6
2018-04-29T05:15:28.203Z,15.8
2018-04-29T05:16:18.281Z,15.8
2018-04-29T05:17:08.333Z,15.8
2018-04-29T05:17:57.817Z,15.8
2018-04-29T05:18:47.959Z,15.9
2018-04-29T05:19:38.527Z,15.9
2018-04-29T05:20:28.646Z,16
2018-04-29T05:21:18.642Z,16.1
2018-04-29T05:22:09.068Z,16.1
2018-04-29T05:22:58.793Z,16.1
2018-04-29T05:23:48.837Z,16.1
2018-04-29T05:24:38.890Z,16
2018-04-29T05:25:28.694Z,16.2
2018-04-29T05:26:18.774Z,16.2
2018-04-29T05:27:09.083Z,16.3
2018-04-29T05:27:58.594Z,16.1
2018-04-29T05:28:49.234Z,16.3
2018-04-29T05:29:39.265Z,16.3
2018-04-29T05:30:29.347Z,16.3
2018-04-29T05:31:19.439Z,16.5
2018-04-29T05:32:09.257Z,16.4
2018-04-29T05:32:59.527Z,16.4
2018-04-29T05:33:48.761Z,16.4
2018-04-29T05:34:39.414Z,16.4
2018-04-29T05:35:30.473Z,16.3
2018-04-29T05:36:19.794Z,16.4
2018-04-29T05:37:09.857Z,16.4
2018-04-29T05:37:59.941Z,16.3
2018-04-29T05:38:49.978Z,16.4
2018-04-29T05:39:39.501Z,16.4
2018-04-29T05:40:30.117Z,16.7
2018-04-29T05:41:20.195Z,16.6
2018-04-29T05:42:10.241Z,16.8
2018-04-29T05:43:00.308Z,16.9
2018-04-29T05:43:50.381Z,16.8
2018-04-29T05:44:40.164Z,16.9
2018-04-29T05:45:30.503Z,16.8
2018-04-29T05:46:20.573Z,16.6
2018-04-29T05:47:10.360Z,16.5
2018-04-29T05:48:00.426Z,16.5
2018-04-29T05:48:50.771Z,16.8
2018-04-29T05:49:40.834Z,16.9
2018-04-29T05:50:30.909Z,17.1
2018-04-29T05:51:20.955Z,17.3
2018-04-29T05:52:10.497Z,17.2
2018-04-29T05:53:01.109Z,17.3
2018-04-29T05:53:50.592Z,17.3
2018-04-29T05:54:40.959Z,17.4
2018-04-29T05:55:31.013Z,17.6
2018-04-29T05:56:20.777Z,17.6
2018-04-29T05:57:11.152Z,17.5
2018-04-29T05:58:01.492Z,17.3
2018-04-29T05:58:51.280Z,17.2
2018-04-29T05:59:41.615Z,17.4
2018-04-29T06:00:31.431Z,17.6
2018-04-29T06:01:21.745Z,17.6
2018-04-29T06:02:11.810Z,17.7
2018-04-29T06:03:01.590Z,17.9
2018-04-29T06:03:51.947Z,18
2018-04-29T06:04:41.998Z,17.6
2018-04-29T06:05:31.495Z,17.7
2018-04-29T06:06:22.334Z,17.9
2018-04-29T06:07:12.214Z,17.6
2018-04-29T06:08:02.247Z,17.6
2018-04-29T06:08:52.307Z,17.9
2018-04-29T06:09:42.376Z,17.8
2018-04-29T06:10:32.176Z,17.8
2018-04-29T06:11:22.231Z,17.9
2018-04-29T06:12:12.309Z,18.2
2018-04-29T06:13:02.634Z,18.5
2018-04-29T06:13:52.751Z,18.8
2018-04-29T06:14:42.761Z,18.8
2018-04-29T06:15:32.867Z,19
2018-04-29T06:16:22.632Z,19.1
2018-04-29T06:17:12.958Z,19.1
2018-04-29T06:18:03.027Z,19.1
2018-04-29T06:18:52.336Z,19.1
2018-04-29T06:19:42.914Z,19.1
2018-04-29T06:20:33.516Z,18.9
2018-04-29T06:21:23.282Z,19.1
2018-04-29T06:22:13.075Z,19.1
2018-04-29T06:23:03.138Z,19
2018-04-29T06:23:53.503Z,18.5
2018-04-29T06:24:43.544Z,18.3
2018-04-29T06:25:33.619Z,18.6
2018-04-29T06:26:23.692Z,18.6
2018-04-29T06:27:13.741Z,18.8
2018-04-29T06:28:03.555Z,18.8
2018-04-29T06:28:53.873Z,18.9
2018-04-29T06:29:43.928Z,85
2018-04-29T06:30:33.783Z,19.3
2018-04-29T06:31:24.053Z,19.6
2018-04-29T06:32:14.141Z,19.8
2018-04-29T06:33:03.629Z,20
2018-04-29T06:33:53.987Z,20.2
2018-04-29T06:34:44.340Z,19.8
2018-04-29T06:35:34.415Z,19.6
2018-04-29T06:36:24.190Z,19.4
2018-04-29T06:37:14.223Z,19.5
2018-04-29T06:38:04.315Z,19.6
2018-04-29T06:38:54.630Z,19.6
2018-04-29T06:39:44.718Z,19.8
2018-04-29T06:40:34.801Z,19.9
2018-04-29T06:41:24.575Z,19.9
2018-04-29T06:42:14.945Z,19.9
2018-04-29T06:43:04.966Z,19.9
2018-04-29T06:43:54.752Z,19.9
2018-04-29T06:44:45.125Z,20.1
2018-04-29T06:45:34.886Z,20.2
2018-04-29T06:46:24.969Z,19.9
2018-04-29T06:47:15.354Z,19.8
2018-04-29T06:48:04.907Z,19.1
2018-04-29T06:48:55.449Z,18.9
2018-04-29T06:49:45.521Z,18.9
2018-04-29T06:50:35.584Z,19.1
2018-04-29T06:51:25.174Z,19.4
2018-04-29T06:52:15.441Z,19.4
2018-04-29T06:53:05.759Z,19.3
2018-04-29T06:53:55.836Z,19.4
2018-04-29T06:54:45.914Z,19.8
2018-04-29T06:55:35.951Z,19.8
2018-04-29T06:56:25.466Z,20.2
2018-04-29T06:57:16.106Z,20.1
2018-04-29T06:58:06.160Z,20.1
2018-04-29T06:58:55.979Z,19.9
2018-04-29T06:59:46.030Z,20
2018-04-29T07:00:36.094Z,20.2
2018-04-29T07:01:26.153Z,20.5
2018-04-29T07:02:16.487Z,20.4
2018-04-29T07:03:06.575Z,20.4
2018-04-29T07:03:55.781Z,20.4
2018-04-29T07:04:46.443Z,20.5
2018-04-29T07:05:36.761Z,20.7
2018-04-29T07:06:26.844Z,20.9
2018-04-29T07:08:07.282Z,20.7
2018-04-29T07:08:56.733Z,20.3
2018-04-29T07:09:46.805Z,20.6
2018-04-29T07:10:37.162Z,20.8
2018-04-29T07:11:27.196Z,21.3
2018-04-29T07:12:16.993Z,21.1
2018-04-29T07:13:07.346Z,21.3
2018-04-29T07:13:57.423Z,21.4
2018-04-29T07:14:47.058Z,21.7
2018-04-29T07:15:37.541Z,21.9
2018-04-29T07:16:27.338Z,22.2
2018-04-29T07:17:17.684Z,21.9
2018-04-29T07:18:07.483Z,21.6
2018-04-29T07:18:57.258Z,21.1
2018-04-29T07:19:47.597Z,21.1
2018-04-29T07:20:37.936Z,21.3
2018-04-29T07:22:18.078Z,21.3
2018-04-29T07:23:08.132Z,21.3
2018-04-29T07:23:58.225Z,21.2
2018-04-29T07:24:48.283Z,21.3
2018-04-29T07:25:38.339Z,21.7
2018-04-29T07:26:28.142Z,21
2018-04-29T07:27:18.453Z,20.6
2018-04-29T07:28:08.544Z,20.4
2018-04-29T07:28:58.320Z,20.6
2018-04-29T07:29:48.194Z,21
2018-04-29T07:30:38.446Z,20.5
2018-04-29T07:31:28.802Z,20.3
2018-04-29T07:32:18.895Z,20.1
2018-04-29T07:33:08.937Z,20.6
2018-04-29T07:33:58.501Z,20.6
2018-04-29T07:34:49.057Z,20.7
2018-04-29T07:35:39.125Z,21.4
2018-04-29T07:36:28.715Z,21.6
2018-04-29T07:37:19.250Z,21.7
2018-04-29T07:38:09.352Z,21.5
2018-04-29T07:38:59.390Z,21.6
2018-04-29T07:39:48.673Z,21.5
2018-04-29T07:40:39.553Z,21.5
2018-04-29T07:41:29.610Z,21.6
2018-04-29T07:42:18.799Z,21.4
2018-04-29T07:43:09.722Z,21.9
2018-04-29T07:43:59.515Z,22.2
2018-04-29T07:44:49.856Z,22.1
2018-04-29T07:45:39.632Z,22.1
2018-04-29T07:46:30.254Z,22.3
2018-04-29T07:47:19.211Z,22
2018-04-29T07:48:10.194Z,21.8
2018-04-29T07:49:00.196Z,21.7
2018-04-29T07:49:50.266Z,22.1
2018-04-29T07:50:40.327Z,22.4
2018-04-29T07:51:30.376Z,22.3
2018-04-29T07:52:20.700Z,21.9
2018-04-29T07:53:10.518Z,22.1
2018-04-29T07:54:00.331Z,21.9
2018-04-29T07:54:50.391Z,21.6
2018-04-29T07:55:40.458Z,21.6
2018-04-29T07:56:30.514Z,21.9
2018-04-29T07:57:20.843Z,22.1
2018-04-29T07:58:10.900Z,22.8
2018-04-29T07:59:00.977Z,22.6
2018-04-29T07:59:50.768Z,22.7
2018-04-29T08:00:41.418Z,22.6
2018-04-29T08:01:31.168Z,22.3
2018-04-29T08:02:21.232Z,22.3
2018-04-29T08:03:10.778Z,22.1
2018-04-29T08:04:00.818Z,22.2
2018-04-29T08:04:51.168Z,21.9
2018-04-29T08:05:41.228Z,21.9
2018-04-29T08:06:31.003Z,21.7
2018-04-29T08:07:21.641Z,21.8
2018-04-29T08:08:11.718Z,21.8
2018-04-29T08:09:01.759Z,21.6
2018-04-29T08:09:51.859Z,21.8
2018-04-29T08:10:41.958Z,21.9
2018-04-29T08:11:31.975Z,22.2
2018-04-29T08:12:22.041Z,21.8
2018-04-29T08:13:12.082Z,22.1
2018-04-29T08:14:02.230Z,22.4
2018-04-29T08:14:51.936Z,22.8
2018-04-29T08:15:42.515Z,23.2
2018-04-29T08:16:32.099Z,23.2
2018-04-29T08:17:21.679Z,22.6
2018-04-29T08:18:12.195Z,23
2018-04-29T08:19:02.585Z,23
2018-04-29T08:19:52.331Z,23.3
2018-04-29T08:20:42.412Z,23.1
2018-04-29T08:21:32.259Z,22.5
2018-04-29T08:22:22.816Z,22.3
2018-04-29T08:23:12.392Z,22.5
2018-04-29T08:24:02.459Z,22.8
2018-04-29T08:24:51.978Z,22.6
2018-04-29T08:25:42.528Z,23.2
2018-04-29T08:26:33.151Z,23.4
2018-04-29T08:27:22.930Z,23.5
2018-04-29T08:28:13.289Z,22.9
2018-04-29T08:29:03.342Z,22.3
2018-04-29T08:29:53.401Z,22.9
2018-04-29T08:30:43.201Z,23
2018-04-29T08:31:33.537Z,22.8
2018-04-29T08:32:23.607Z,23.1
2018-04-29T08:33:13.680Z,23.4
2018-04-29T08:34:03.447Z,23.9
2018-04-29T08:34:53.803Z,24.3
2018-04-29T08:35:43.588Z,24.3
2018-04-29T08:36:33.937Z,24
2018-04-29T08:37:24.026Z,23.4
2018-04-29T08:38:14.106Z,22.7
2018-04-29T08:39:04.148Z,23.4
2018-04-29T08:39:53.934Z,23.1
2018-04-29T08:40:44.004Z,23.6
2018-04-29T08:41:34.343Z,23.1
2018-04-29T08:42:23.572Z,22.9
2018-04-29T08:43:14.896Z,22.9
2018-04-29T08:44:04.240Z,23.3
2018-04-29T08:44:54.319Z,24
2018-04-29T08:45:44.369Z,23.8
2018-04-29T08:46:34.714Z,23.3
2018-04-29T08:47:24.504Z,23.6
2018-04-29T08:48:14.855Z,23.4
2018-04-29T08:49:04.945Z,23.8
2018-04-29T08:49:54.997Z,24.1
2018-04-29T08:50:45.056Z,24.2
2018-04-29T08:51:35.118Z,23.8
2018-04-29T08:52:25.187Z,24.3
2018-04-29T08:53:15.264Z,24.3
2018-04-29T08:54:05.323Z,24.2
2018-04-29T08:54:55.883Z,23.5
2018-04-29T08:55:45.173Z,23.6
2018-04-29T08:56:35.524Z,23.3
2018-04-29T08:57:25.338Z,23.3
2018-04-29T08:58:15.191Z,23.3
2018-04-29T08:59:05.425Z,23
2018-04-29T08:59:55.778Z,22.8
2018-04-29T09:00:45.833Z,22.9
2018-04-29T09:01:35.993Z,23.4
2018-04-29T09:02:25.415Z,23.4
2018-04-29T09:03:15.769Z,23.3
2018-04-29T09:04:06.113Z,23.6
2018-04-29T09:04:55.915Z,23.9
2018-04-29T09:05:46.000Z,24.1
2018-04-29T09:06:36.076Z,23.2
2018-04-29T09:07:26.375Z,23.5
2018-04-29T09:08:16.174Z,23.8
2018-04-29T09:09:06.522Z,23.8
2018-04-29T09:09:56.298Z,23.6
2018-04-29T09:10:46.382Z,23.6
2018-04-29T09:11:36.727Z,23.4
2018-04-29T09:12:26.802Z,23.4
2018-04-29T09:13:16.845Z,23.8
2018-04-29T09:14:06.941Z,24.3
2018-04-29T09:14:56.710Z,24.5
2018-04-29T09:15:46.771Z,24.4
2018-04-29T09:16:36.862Z,24.9
2018-04-29T09:17:27.176Z,24.4
2018-04-29T09:18:17.251Z,24.1
2018-04-29T09:19:07.298Z,24
2018-04-29T09:19:57.399Z,24.4
2018-04-29T09:20:47.173Z,24.2
2018-04-29T09:21:37.502Z,23.9
2018-04-29T09:22:27.300Z,24.2
2018-04-29T09:23:17.634Z,24.1
2018-04-29T09:24:07.700Z,24.1
2018-04-29T09:24:57.770Z,24.4
2018-04-29T09:25:47.932Z,25.1
2018-04-29T09:26:37.919Z,25.1
2018-04-29T09:27:27.981Z,24.2
2018-04-29T09:28:18.108Z,23.6
2018-04-29T09:29:08.089Z,23.4
2018-04-29T09:29:58.174Z,23.8
2018-04-29T09:30:47.640Z,23.6
2018-04-29T09:31:38.287Z,24
2018-04-29T09:32:28.348Z,23.6
2018-04-29T09:33:18.136Z,23.7
2018-04-29T09:34:08.223Z,23.4
2018-04-29T09:34:58.587Z,23.5
2018-04-29T09:35:48.661Z,23.7
2018-04-29T09:36:38.411Z,23.7
2018-04-29T09:37:28.768Z,23.9
2018-04-29T09:38:18.827Z,24.1
2018-04-29T09:39:08.905Z,24.5
2018-04-29T09:39:58.399Z,24.5
2018-04-29T09:40:49.037Z,24.1
2018-04-29T09:41:39.086Z,23.9
2018-04-29T09:42:29.186Z,24.1
2018-04-29T09:43:19.299Z,24.6
2018-04-29T09:44:09.290Z,24.1
2018-04-29T09:44:58.811Z,23.9
2018-04-29T09:45:48.859Z,24.1
2018-04-29T09:46:39.496Z,24.1
2018-04-29T09:47:29.540Z,24.3
2018-04-29T09:48:19.609Z,24.2
2018-04-29T09:49:09.140Z,24.4
2018-04-29T09:49:59.738Z,24.9
2018-04-29T09:50:49.257Z,24.6
2018-04-29T09:51:39.895Z,24.8
2018-04-29T09:52:30.001Z,24.5
2018-04-29T09:53:20.026Z,24.5
2018-04-29T09:54:10.090Z,24.3
2018-04-29T09:54:59.878Z,24.3
2018-04-29T09:55:50.228Z,24.3
2018-04-29T09:56:40.293Z,24.4
2018-04-29T09:57:29.794Z,24.3
2018-04-29T09:58:20.470Z,24.3
2018-04-29T09:59:10.187Z,24.1
2018-04-29T10:00:00.287Z,24.4
2018-04-29T10:00:50.341Z,25.1
2018-04-29T10:01:40.417Z,25.7
2018-04-29T10:02:30.764Z,25.2
2018-04-29T10:03:20.832Z,25.1
2018-04-29T10:04:10.608Z,24.4
2018-04-29T10:05:00.396Z,24.6
2018-04-29T10:05:51.022Z,24.3
2018-04-29T10:06:41.096Z,24.3
2018-04-29T10:07:30.881Z,24.3
2018-04-29T10:08:21.198Z,24.8
2018-04-29T10:09:11.309Z,24.8
2018-04-29T10:10:01.361Z,24.2
2018-04-29T10:10:50.852Z,23.9
2018-04-29T10:11:41.488Z,24.1
2018-04-29T10:12:31.556Z,24.4
2018-04-29T10:13:21.603Z,24.8
2018-04-29T10:14:11.416Z,24.9
2018-04-29T10:15:01.464Z,24.7
2018-04-29T10:15:51.818Z,24.6
2018-04-29T10:16:41.330Z,24.6
2018-04-29T10:17:31.961Z,24.9
2018-04-29T10:18:22.030Z,24.8
2018-04-29T10:19:12.090Z,24.4
2018-04-29T10:20:02.153Z,24.5
2018-04-29T10:20:51.669Z,24.3
2018-04-29T10:21:42.290Z,24.1
2018-04-29T10:22:31.775Z,24.3
2018-04-29T10:23:22.425Z,24.9
2018-04-29T10:24:12.198Z,25
2018-04-29T10:25:02.260Z,25.3
2018-04-29T10:25:52.700Z,25.3
2018-04-29T10:26:42.685Z,25.4
2018-04-29T10:27:32.753Z,25.5
2018-04-29T10:28:22.802Z,25.3
2018-04-29T10:29:12.891Z,25.1
2018-04-29T10:30:02.968Z,25.4
2018-04-29T10:30:52.442Z,25.4
2018-04-29T10:31:42.798Z,25.8
2018-04-29T10:32:32.957Z,25.3
2018-04-29T10:33:23.258Z,24.9
2018-04-29T10:34:13.056Z,24.8
2018-04-29T10:35:02.788Z,24.7
2018-04-29T10:35:53.130Z,24.4
2018-04-29T10:36:43.472Z,24.4
2018-04-29T10:37:33.529Z,24.3
2018-04-29T10:38:23.022Z,24.1
2018-04-29T10:39:13.416Z,24.4
2018-04-29T10:40:03.456Z,24.5
2018-04-29T10:40:53.544Z,24.4
2018-04-29T10:41:43.299Z,24.5
2018-04-29T10:42:33.918Z,24.8
2018-04-29T10:43:24.043Z,25.3
2018-04-29T10:44:14.143Z,25.9
2018-04-29T10:45:03.836Z,25.6
2018-04-29T10:45:54.003Z,25.5
2018-04-29T10:46:44.239Z,25.3
2018-04-29T10:47:34.320Z,24.9
2018-04-29T10:48:24.379Z,24.7
2018-04-29T10:49:14.461Z,24.9
2018-04-29T10:50:04.542Z,24.8
2018-04-29T10:50:54.018Z,24.8
2018-04-29T10:51:44.366Z,24.1
2018-04-29T10:52:35.261Z,24.5
2018-04-29T10:53:23.661Z,24.6
2018-04-29T10:54:14.858Z,25.1
2018-04-29T10:55:04.937Z,24.6
2018-04-29T10:55:54.703Z,25.3
2018-04-29T10:56:44.572Z,25.6
2018-04-29T10:57:35.121Z,24.7
2018-04-29T10:58:24.901Z,24.4
2018-04-29T10:59:15.260Z,24.6
2018-04-29T11:00:05.329Z,24.1
2018-04-29T11:00:54.542Z,24.4
2018-04-29T11:01:45.188Z,23.9
2018-04-29T11:02:35.518Z,24.1
2018-04-29T11:03:24.838Z,24.6
2018-04-29T11:04:15.954Z,25
2018-04-29T11:05:05.142Z,24.6
2018-04-29T11:05:55.796Z,24.9
2018-04-29T11:06:45.892Z,25.2
2018-04-29T11:07:35.378Z,25.2
2018-04-29T11:08:25.696Z,25.2
2018-04-29T11:09:16.103Z,24.5
2018-04-29T11:10:05.859Z,24.3